createdAt,value
2017-08-26T00:00:41.288Z,75
2017-08-26T00:01:42.021Z,74
2017-08-26T00:02:42.733Z,75
2017-08-26T00:03:43.454Z,74
2017-08-26T00:04:44.199Z,74
2017-08-26T00:05:44.929Z,74
2017-08-26T00:06:45.645Z,74
2017-08-26T00:07:46.365Z,74
2017-08-26T00:08:47.092Z,74
2017-08-26T00:09:47.817Z,74
2017-08-26T00:10:48.537Z,75
2017-08-26T00:11:49.261Z,74
2017-08-26T00:12:50.004Z,74
2017-08-26T00:13:50.727Z,74
2017-08-26T00:14:51.446Z,75
2017-08-26T00:15:52.172Z,75
2017-08-26T00:16:52.914Z,75
2017-08-26T00:17:53.638Z,74
2017-08-26T00:18:54.359Z,75
2017-08-26T00:19:55.084Z,75
2017-08-26T00:20:55.805Z,75
2017-08-26T00:21:56.526Z,75
2017-08-26T00:22:57.245Z,75
2017-08-26T00:23:57.965Z,76
2017-08-26T00:24:58.684Z,75
2017-08-26T00:25:59.413Z,75
2017-08-26T00:27:00.133Z,75
2017-08-26T00:28:00.873Z,75
2017-08-26T00:29:01.599Z,75
2017-08-26T00:30:02.341Z,75
2017-08-26T00:31:03.066Z,75
2017-08-26T00:32:03.808Z,75
2017-08-26T00:33:04.528Z,75
2017-08-26T00:34:05.255Z,76
2017-08-26T00:35:05.998Z,75
2017-08-26T00:36:06.721Z,76
2017-08-26T00:37:07.443Z,76
2017-08-26T00:38:08.165Z,76
2017-08-26T00:39:08.890Z,76
2017-08-26T00:40:09.611Z,76
2017-08-26T00:41:10.334Z,76
2017-08-26T00:42:11.055Z,76
2017-08-26T00:43:11.778Z,77
2017-08-26T00:44:12.502Z,76
2017-08-26T00:45:13.223Z,76
2017-08-26T00:46:13.945Z,76
2017-08-26T00:47:14.669Z,76
2017-08-26T00:48:15.392Z,76
2017-08-26T00:49:16.115Z,76
2017-08-26T00:50:16.837Z,76
2017-08-26T00:51:17.560Z,76
2017-08-26T00:52:18.302Z,76
2017-08-26T00:53:19.022Z,76
2017-08-26T00:54:19.745Z,76
2017-08-26T00:55:20.473Z,76
2017-08-26T00:56:21.444Z,76
2017-08-26T00:57:22.165Z,76
2017-08-26T00:58:22.907Z,76
2017-08-26T00:59:23.639Z,76
2017-08-26T01:00:24.357Z,76
2017-08-26T01:01:25.103Z,76
2017-08-26T01:02:25.828Z,76
2017-08-26T01:03:26.549Z,76
2017-08-26T01:04:27.272Z,76
2017-08-26T01:05:28.003Z,77
2017-08-26T01:06:28.725Z,77
2017-08-26T01:07:29.471Z,76
2017-08-26T01:08:30.187Z,77
2017-08-26T01:09:30.914Z,77
2017-08-26T01:10:31.634Z,77
2017-08-26T01:11:32.381Z,77
2017-08-26T01:12:33.107Z,77
2017-08-26T01:13:33.828Z,76
2017-08-26T01:14:34.554Z,76
2017-08-26T01:15:35.299Z,76
2017-08-26T01:16:36.044Z,77
2017-08-26T01:17:36.791Z,77
2017-08-26T01:18:37.517Z,77
2017-08-26T01:19:38.264Z,77
2017-08-26T01:20:38.986Z,77
2017-08-26T01:21:39.707Z,77
2017-08-26T01:22:40.432Z,77
2017-08-26T01:23:41.156Z,77
2017-08-26T01:24:41.885Z,77
2017-08-26T01:25:42.606Z,77
2017-08-26T01:26:43.351Z,77
2017-08-26T01:27:44.073Z,77
2017-08-26T01:28:44.817Z,77
2017-08-26T01:29:45.542Z,77
2017-08-26T01:30:46.268Z,77
2017-08-26T01:31:46.993Z,77
2017-08-26T01:32:47.717Z,77
2017-08-26T01:33:48.441Z,78
2017-08-26T01:34:49.167Z,79
2017-08-26T01:35:49.888Z,79
2017-08-26T01:36:50.610Z,79
2017-08-26T01:37:51.356Z,78
2017-08-26T01:38:52.104Z,79
2017-08-26T01:39:52.826Z,79
2017-08-26T01:40:53.547Z,79
2017-08-26T01:41:54.271Z,79
2017-08-26T01:42:55.000Z,79
2017-08-26T01:43:55.717Z,79
2017-08-26T01:44:56.438Z,79
2017-08-26T01:45:57.164Z,79
2017-08-26T01:46:57.911Z,79
2017-08-26T01:47:58.635Z,80
2017-08-26T01:48:59.358Z,80
2017-08-26T01:50:00.078Z,79
2017-08-26T01:51:00.804Z,79
2017-08-26T01:52:01.532Z,79
2017-08-26T01:53:02.250Z,79
2017-08-26T01:54:02.974Z,79
2017-08-26T01:55:03.702Z,79
2017-08-26T01:56:04.424Z,79
2017-08-26T01:57:05.150Z,79
2017-08-26T01:58:05.870Z,79
2017-08-26T01:59:06.594Z,79
2017-08-26T02:00:07.316Z,80
2017-08-26T02:01:08.059Z,80
2017-08-26T02:02:08.783Z,80
2017-08-26T02:03:09.509Z,80
2017-08-26T02:04:10.232Z,80
2017-08-26T02:05:10.952Z,81
2017-08-26T02:06:11.678Z,81
2017-08-26T02:07:12.401Z,80
2017-08-26T02:08:13.126Z,81
2017-08-26T02:09:13.851Z,81
2017-08-26T02:10:14.575Z,80
2017-08-26T02:11:15.295Z,80
2017-08-26T02:12:16.023Z,80
2017-08-26T02:13:16.745Z,80
2017-08-26T02:14:17.467Z,80
2017-08-26T02:15:18.188Z,80
2017-08-26T02:16:18.911Z,80
2017-08-26T02:17:19.636Z,80
2017-08-26T02:18:20.388Z,80
2017-08-26T02:19:21.104Z,80
2017-08-26T02:20:21.826Z,80
2017-08-26T02:21:22.547Z,80
2017-08-26T02:22:23.271Z,80
2017-08-26T02:23:23.996Z,80
2017-08-26T02:24:24.722Z,80
2017-08-26T02:25:25.468Z,80
2017-08-26T02:26:26.192Z,80
2017-08-26T02:27:26.915Z,80
2017-08-26T02:28:27.638Z,80
2017-08-26T02:29:28.383Z,80
2017-08-26T02:30:29.107Z,80
2017-08-26T02:31:29.828Z,80
2017-08-26T02:32:30.553Z,80
2017-08-26T02:33:31.297Z,80
2017-08-26T02:34:32.019Z,79
2017-08-26T02:35:32.742Z,79
2017-08-26T02:36:33.466Z,80
2017-08-26T02:37:34.188Z,80
2017-08-26T02:38:34.916Z,80
2017-08-26T02:39:35.641Z,80
2017-08-26T02:40:36.368Z,80
2017-08-26T02:41:37.088Z,80
2017-08-26T02:42:37.815Z,80
2017-08-26T02:43:38.532Z,80
2017-08-26T02:44:39.276Z,80
2017-08-26T02:45:40.002Z,80
2017-08-26T02:46:40.724Z,80
2017-08-26T02:47:41.453Z,81
2017-08-26T02:48:42.175Z,81
2017-08-26T02:49:42.895Z,81
2017-08-26T02:50:43.617Z,81
2017-08-26T02:51:44.341Z,81
2017-08-26T02:52:45.067Z,81
2017-08-26T02:53:45.811Z,81
2017-08-26T02:54:46.538Z,81
2017-08-26T02:55:47.257Z,82
2017-08-26T02:56:48.008Z,81
2017-08-26T02:57:48.726Z,81
2017-08-26T02:58:49.453Z,82
2017-08-26T02:59:50.196Z,81
2017-08-26T03:00:50.923Z,81
2017-08-26T03:01:51.642Z,81
2017-08-26T03:02:52.365Z,81
2017-08-26T03:03:53.091Z,82
2017-08-26T03:04:53.811Z,82
2017-08-26T03:05:54.533Z,82
2017-08-26T03:06:55.255Z,81
2017-08-26T03:07:56.003Z,82
2017-08-26T03:08:56.723Z,82
2017-08-26T03:09:57.451Z,81
2017-08-26T03:10:58.172Z,82
2017-08-26T03:11:58.920Z,82
2017-08-26T03:12:59.641Z,82
2017-08-26T03:14:00.363Z,81
2017-08-26T03:15:01.111Z,82
2017-08-26T03:16:01.832Z,81
2017-08-26T03:17:02.577Z,81
2017-08-26T03:18:03.302Z,82
2017-08-26T03:19:04.029Z,81
2017-08-26T03:20:04.752Z,82
2017-08-26T03:21:05.471Z,81
2017-08-26T03:22:06.216Z,82
2017-08-26T03:23:06.943Z,82
2017-08-26T03:24:07.666Z,82
2017-08-26T03:25:08.386Z,82
2017-08-26T03:26:09.110Z,82
2017-08-26T03:27:09.830Z,82
2017-08-26T03:28:10.557Z,82
2017-08-26T03:29:11.301Z,82
2017-08-26T03:30:12.051Z,82
2017-08-26T03:31:12.774Z,82
2017-08-26T03:32:13.522Z,82
2017-08-26T03:33:14.241Z,82
2017-08-26T03:34:14.964Z,82
2017-08-26T03:35:15.689Z,82
2017-08-26T03:36:16.414Z,83
2017-08-26T03:37:17.133Z,82
2017-08-26T03:38:17.859Z,82
2017-08-26T03:39:18.580Z,82
2017-08-26T03:40:19.308Z,82
2017-08-26T03:41:20.052Z,82
2017-08-26T03:42:20.774Z,82
2017-08-26T03:43:21.497Z,82
2017-08-26T03:44:22.217Z,82
2017-08-26T03:45:22.944Z,82
2017-08-26T03:46:23.667Z,82
2017-08-26T03:47:24.391Z,82
2017-08-26T03:48:25.131Z,82
2017-08-26T03:49:25.860Z,82
2017-08-26T03:50:26.584Z,82
2017-08-26T03:51:27.306Z,82
2017-08-26T03:52:28.051Z,82
2017-08-26T03:53:28.772Z,82
2017-08-26T03:54:29.501Z,82
2017-08-26T03:55:30.225Z,82
2017-08-26T03:56:30.973Z,83
2017-08-26T03:57:31.696Z,83
2017-08-26T03:58:32.419Z,83
2017-08-26T03:59:33.146Z,83
2017-08-26T04:00:33.889Z,83
2017-08-26T04:01:34.615Z,83
2017-08-26T04:02:35.364Z,83
2017-08-26T04:03:36.088Z,83
2017-08-26T04:04:36.828Z,83
2017-08-26T04:05:37.574Z,83
2017-08-26T04:06:38.322Z,83
2017-08-26T04:07:39.046Z,83
2017-08-26T04:08:39.766Z,83
2017-08-26T04:09:40.488Z,83
2017-08-26T04:10:41.211Z,83
2017-08-26T04:11:41.936Z,83
2017-08-26T04:12:42.658Z,83
2017-08-26T04:13:43.379Z,83
2017-08-26T04:14:44.102Z,83
2017-08-26T04:15:44.828Z,83
2017-08-26T04:16:45.553Z,84
2017-08-26T04:17:46.274Z,83
2017-08-26T04:18:46.997Z,84
2017-08-26T04:19:47.723Z,84
2017-08-26T04:20:48.468Z,84
2017-08-26T04:21:49.193Z,84
2017-08-26T04:22:49.919Z,84
2017-08-26T04:23:50.641Z,84
2017-08-26T04:24:51.367Z,85
2017-08-26T04:25:52.094Z,85
2017-08-26T04:26:52.820Z,85
2017-08-26T04:27:53.543Z,85
2017-08-26T04:28:54.292Z,84
2017-08-26T04:29:55.015Z,85
2017-08-26T04:30:55.738Z,85
2017-08-26T04:31:56.462Z,85
2017-08-26T04:32:57.184Z,85
2017-08-26T04:33:57.907Z,85
2017-08-26T04:34:58.638Z,85
2017-08-26T04:35:59.364Z,85
2017-08-26T04:37:00.086Z,85
2017-08-26T04:38:00.810Z,85
2017-08-26T04:39:01.540Z,85
2017-08-26T04:40:02.265Z,85
2017-08-26T04:41:02.989Z,86
2017-08-26T04:42:03.715Z,86
2017-08-26T04:43:04.440Z,85
2017-08-26T04:44:05.170Z,86
2017-08-26T04:45:05.893Z,86
2017-08-26T04:46:06.623Z,86
2017-08-26T04:47:07.372Z,86
2017-08-26T04:48:08.100Z,86
2017-08-26T04:49:08.826Z,86
2017-08-26T04:50:09.552Z,87
2017-08-26T04:51:10.303Z,86
2017-08-26T04:52:11.028Z,87
2017-08-26T04:53:11.755Z,87
2017-08-26T04:54:12.506Z,87
2017-08-26T04:55:13.232Z,87
2017-08-26T04:56:13.959Z,87
2017-08-26T04:57:14.710Z,88
2017-08-26T04:58:15.437Z,88
2017-08-26T04:59:16.158Z,88
2017-08-26T05:00:16.890Z,88
2017-08-26T05:01:17.615Z,88
2017-08-26T05:02:18.340Z,88
2017-08-26T05:03:19.066Z,88
2017-08-26T05:04:19.790Z,88
2017-08-26T05:05:20.538Z,88
2017-08-26T05:06:21.268Z,88
2017-08-26T05:07:21.991Z,88
2017-08-26T05:08:22.742Z,88
2017-08-26T05:09:23.466Z,88
2017-08-26T05:10:24.194Z,89
2017-08-26T05:11:24.923Z,89
2017-08-26T05:12:25.647Z,89
2017-08-26T05:13:26.372Z,89
2017-08-26T05:14:27.122Z,89
2017-08-26T05:15:27.856Z,89
2017-08-26T05:16:28.576Z,89
2017-08-26T05:17:29.304Z,89
2017-08-26T05:18:30.058Z,89
2017-08-26T05:19:30.804Z,88
2017-08-26T05:20:31.535Z,89
2017-08-26T05:21:32.260Z,89
2017-08-26T05:22:33.006Z,88
2017-08-26T05:23:33.733Z,89
2017-08-26T05:24:34.481Z,89
2017-08-26T05:25:35.211Z,88
2017-08-26T05:26:35.935Z,88
2017-08-26T05:27:36.665Z,88
2017-08-26T05:28:37.413Z,88
2017-08-26T05:29:38.137Z,87
2017-08-26T05:30:38.879Z,88
2017-08-26T05:31:39.617Z,87
2017-08-26T05:32:40.321Z,86
2017-08-26T05:33:41.046Z,87
2017-08-26T05:34:41.793Z,87
2017-08-26T05:35:42.523Z,87
2017-08-26T05:36:43.247Z,87
2017-08-26T05:37:43.977Z,87
2017-08-26T05:38:44.704Z,86
2017-08-26T05:39:45.435Z,87
2017-08-26T05:40:46.183Z,87
2017-08-26T05:41:46.913Z,87
2017-08-26T05:42:47.661Z,86
2017-08-26T05:43:48.384Z,86
2017-08-26T05:44:49.112Z,86
2017-08-26T05:45:49.843Z,86
2017-08-26T05:46:50.568Z,86
2017-08-26T05:47:51.292Z,87
2017-08-26T05:48:52.021Z,87
2017-08-26T05:49:52.749Z,87
2017-08-26T05:50:53.475Z,87
2017-08-26T05:51:54.204Z,87
2017-08-26T05:52:54.933Z,86
2017-08-26T05:53:55.658Z,86
2017-08-26T05:54:56.385Z,86
2017-08-26T05:55:57.117Z,86
2017-08-26T05:56:57.872Z,86
2017-08-26T05:57:58.595Z,86
2017-08-26T05:58:59.322Z,86
2017-08-26T06:00:00.069Z,86
2017-08-26T06:01:00.822Z,86
2017-08-26T06:02:01.551Z,85
2017-08-26T06:03:02.281Z,85
2017-08-26T06:04:03.003Z,85
2017-08-26T06:05:03.731Z,85
2017-08-26T06:06:04.462Z,85
2017-08-26T06:07:05.189Z,84
2017-08-26T06:08:05.938Z,85
2017-08-26T06:09:06.672Z,85
2017-08-26T06:10:07.396Z,85
2017-08-26T06:11:08.143Z,84
2017-08-26T06:12:08.871Z,84
2017-08-26T06:13:09.597Z,84
2017-08-26T06:14:10.323Z,84
2017-08-26T06:15:11.060Z,83
2017-08-26T06:16:11.805Z,84
2017-08-26T06:17:12.554Z,84
2017-08-26T06:18:13.283Z,83
2017-08-26T06:19:14.015Z,83
2017-08-26T06:20:14.768Z,83
2017-08-26T06:21:15.520Z,83
2017-08-26T06:22:16.251Z,83
2017-08-26T06:23:16.976Z,82
2017-08-26T06:24:17.712Z,82
2017-08-26T06:25:18.439Z,82
2017-08-26T06:26:19.168Z,82
2017-08-26T06:27:19.897Z,82
2017-08-26T06:28:20.651Z,82
2017-08-26T06:29:21.383Z,82
2017-08-26T06:30:22.110Z,82
2017-08-26T06:31:22.840Z,82
2017-08-26T06:32:23.566Z,81
2017-08-26T06:33:24.295Z,81
2017-08-26T06:34:25.052Z,81
2017-08-26T06:35:25.804Z,82
2017-08-26T06:36:26.535Z,81
2017-08-26T06:37:27.264Z,81
2017-08-26T06:38:27.995Z,81
2017-08-26T06:39:28.735Z,82
2017-08-26T06:40:29.455Z,81
2017-08-26T06:41:30.187Z,81
2017-08-26T06:42:30.944Z,81
2017-08-26T06:43:31.675Z,81
2017-08-26T06:44:32.402Z,80
2017-08-26T06:45:33.134Z,80
2017-08-26T06:46:33.866Z,81
2017-08-26T06:47:34.592Z,80
2017-08-26T06:48:35.324Z,80
2017-08-26T06:49:36.055Z,80
2017-08-26T06:50:36.789Z,79
2017-08-26T06:51:37.519Z,79
2017-08-26T06:52:38.252Z,78
2017-08-26T06:53:38.985Z,79
2017-08-26T06:54:39.717Z,78
2017-08-26T06:55:40.454Z,78
2017-08-26T06:56:41.183Z,77
2017-08-26T06:57:41.924Z,76
2017-08-26T06:58:42.653Z,77
2017-08-26T06:59:43.390Z,76
2017-08-26T07:00:44.130Z,75
2017-08-26T07:01:44.887Z,75
2017-08-26T07:02:45.622Z,75
2017-08-26T07:03:46.353Z,74
2017-08-26T07:04:47.110Z,73
2017-08-26T07:05:47.848Z,73
2017-08-26T07:06:48.607Z,73
2017-08-26T07:07:49.347Z,73
2017-08-26T07:08:50.100Z,74
2017-08-26T07:09:50.856Z,74
2017-08-26T07:10:51.587Z,75
2017-08-26T07:11:52.322Z,75
2017-08-26T07:12:53.062Z,75
2017-08-26T07:13:53.829Z,75
2017-08-26T07:14:54.555Z,75
2017-08-26T07:15:55.282Z,75
2017-08-26T07:16:56.014Z,74
2017-08-26T07:17:56.747Z,74
2017-08-26T07:18:57.482Z,74
2017-08-26T07:19:58.218Z,74
2017-08-26T07:20:58.949Z,74
2017-08-26T07:21:59.686Z,75
2017-08-26T07:23:00.422Z,75
2017-08-26T07:24:01.156Z,73
2017-08-26T07:25:01.891Z,73
2017-08-26T07:26:02.628Z,73
2017-08-26T07:27:03.365Z,72
2017-08-26T07:28:04.102Z,72
2017-08-26T07:29:04.843Z,71
2017-08-26T07:30:05.596Z,71
2017-08-26T07:31:06.330Z,71
2017-08-26T07:32:07.075Z,71
2017-08-26T07:33:07.814Z,71
2017-08-26T07:34:08.552Z,72
2017-08-26T07:35:09.291Z,73
2017-08-26T07:36:10.024Z,73
2017-08-26T07:37:10.763Z,73
2017-08-26T07:38:11.498Z,74
2017-08-26T07:39:12.235Z,75
2017-08-26T07:40:12.998Z,75
2017-08-26T07:41:13.730Z,75
2017-08-26T07:42:14.465Z,74
2017-08-26T07:43:15.204Z,74
2017-08-26T07:44:15.947Z,74
2017-08-26T07:45:16.683Z,74
2017-08-26T07:46:17.419Z,74
2017-08-26T07:47:18.167Z,74
2017-08-26T07:48:18.898Z,73
2017-08-26T07:49:19.640Z,73
2017-08-26T07:50:20.382Z,71
2017-08-26T07:51:21.118Z,71
2017-08-26T07:52:21.861Z,71
2017-08-26T07:53:22.604Z,71
2017-08-26T07:54:23.341Z,71
2017-08-26T07:55:24.085Z,70
2017-08-26T07:56:24.821Z,68
2017-08-26T07:57:25.569Z,68
2017-08-26T07:58:26.308Z,66
2017-08-26T07:59:27.048Z,64
2017-08-26T08:00:27.782Z,64
2017-08-26T08:01:28.521Z,63
2017-08-26T08:02:29.259Z,62
2017-08-26T08:03:30.021Z,62
2017-08-26T08:04:30.755Z,62
2017-08-26T08:05:31.500Z,62
2017-08-26T08:06:32.264Z,61
2017-08-26T08:07:33.020Z,60
2017-08-26T08:08:33.760Z,58
2017-08-26T08:09:34.499Z,57
2017-08-26T08:10:35.238Z,57
2017-08-26T08:11:35.978Z,57
2017-08-26T08:12:36.722Z,57
2017-08-26T08:13:37.462Z,56
2017-08-26T08:14:38.204Z,56
2017-08-26T08:15:38.950Z,56
2017-08-26T08:16:39.682Z,55
2017-08-26T08:17:40.446Z,54
2017-08-26T08:18:41.187Z,56
2017-08-26T08:19:41.926Z,55
2017-08-26T08:20:42.664Z,56
2017-08-26T08:21:43.425Z,57
2017-08-26T08:22:44.164Z,56
2017-08-26T08:23:44.905Z,56
2017-08-26T08:24:45.643Z,55
2017-08-26T08:25:46.387Z,56
2017-08-26T08:26:47.131Z,55
2017-08-26T08:27:47.873Z,55
2017-08-26T08:28:48.614Z,54
2017-08-26T08:29:49.362Z,54
2017-08-26T08:30:50.114Z,54
2017-08-26T08:31:50.858Z,55
2017-08-26T08:32:51.600Z,57
2017-08-26T08:33:52.337Z,57
2017-08-26T08:34:53.078Z,59
2017-08-26T08:35:53.822Z,58
2017-08-26T08:36:54.587Z,58
2017-08-26T08:37:55.332Z,59
2017-08-26T08:38:56.071Z,60
2017-08-26T08:39:56.811Z,61
2017-08-26T08:40:57.549Z,61
2017-08-26T08:41:58.310Z,62
2017-08-26T08:42:59.052Z,63
2017-08-26T08:43:59.812Z,65
2017-08-26T08:45:00.553Z,65
2017-08-26T08:46:01.294Z,65
2017-08-26T08:47:02.035Z,65
2017-08-26T08:48:02.773Z,65
2017-08-26T08:49:03.530Z,64
2017-08-26T08:50:04.271Z,63
2017-08-26T08:51:05.035Z,63
2017-08-26T08:52:05.779Z,63
2017-08-26T08:53:06.518Z,63
2017-08-26T08:54:07.275Z,62
2017-08-26T08:55:08.002Z,62
2017-08-26T08:56:08.750Z,60
2017-08-26T08:57:09.491Z,61
2017-08-26T08:58:10.235Z,60
2017-08-26T08:59:10.982Z,60
2017-08-26T09:00:11.718Z,60
2017-08-26T09:01:12.485Z,59
2017-08-26T09:02:13.229Z,60
2017-08-26T09:03:13.969Z,60
2017-08-26T09:04:14.714Z,59
2017-08-26T09:05:15.478Z,60
2017-08-26T09:06:16.221Z,62
2017-08-26T09:07:16.988Z,61
2017-08-26T09:08:17.735Z,61
2017-08-26T09:09:18.477Z,60
2017-08-26T09:10:19.221Z,59
2017-08-26T09:11:19.966Z,58
2017-08-26T09:12:20.713Z,58
2017-08-26T09:13:21.456Z,57
2017-08-26T09:14:22.218Z,57
2017-08-26T09:15:22.981Z,58
2017-08-26T09:16:23.723Z,59
2017-08-26T09:17:24.490Z,59
2017-08-26T09:18:25.245Z,61
2017-08-26T09:19:25.976Z,60
2017-08-26T09:20:26.719Z,59
2017-08-26T09:21:27.466Z,59
2017-08-26T09:22:28.233Z,59
2017-08-26T09:23:28.977Z,59
2017-08-26T09:24:29.727Z,58
2017-08-26T09:25:30.464Z,58
2017-08-26T09:26:31.212Z,58
2017-08-26T09:27:31.956Z,57
2017-08-26T09:28:32.700Z,57
2017-08-26T09:29:33.468Z,57
2017-08-26T09:30:34.249Z,58
2017-08-26T09:31:35.008Z,58
2017-08-26T09:32:35.752Z,59
2017-08-26T09:33:36.498Z,58
2017-08-26T09:34:37.241Z,58
2017-08-26T09:35:37.986Z,58
2017-08-26T09:36:38.749Z,59
2017-08-26T09:37:39.490Z,60
2017-08-26T09:38:40.232Z,59
2017-08-26T09:39:40.982Z,59
2017-08-26T09:40:41.721Z,57
2017-08-26T09:41:42.467Z,57
2017-08-26T09:42:43.214Z,59
2017-08-26T09:43:43.949Z,59
2017-08-26T09:44:44.697Z,58
2017-08-26T09:45:45.462Z,59
2017-08-26T09:46:46.225Z,59
2017-08-26T09:47:46.970Z,59
2017-08-26T09:48:47.713Z,60
2017-08-26T09:49:48.453Z,60
2017-08-26T09:50:49.191Z,60
2017-08-26T09:51:49.931Z,60
2017-08-26T09:52:50.674Z,59
2017-08-26T09:53:51.417Z,60
2017-08-26T09:54:52.156Z,60
2017-08-26T09:55:52.918Z,59
2017-08-26T09:56:53.662Z,60
2017-08-26T09:57:54.402Z,60
2017-08-26T09:58:55.149Z,61
2017-08-26T09:59:55.888Z,61
2017-08-26T10:00:56.631Z,61
2017-08-26T10:01:57.370Z,62
2017-08-26T10:02:58.113Z,63
2017-08-26T10:03:58.879Z,63
2017-08-26T10:04:59.623Z,64
2017-08-26T10:06:00.366Z,64
2017-08-26T10:07:01.129Z,64
2017-08-26T10:08:01.870Z,63
2017-08-26T10:09:02.668Z,63
2017-08-26T10:10:03.412Z,63
2017-08-26T10:11:04.151Z,62
2017-08-26T10:12:04.912Z,63
2017-08-26T10:13:05.673Z,63
2017-08-26T10:14:06.434Z,63
2017-08-26T10:15:07.180Z,63
2017-08-26T10:16:07.917Z,62
2017-08-26T10:17:08.677Z,62
2017-08-26T10:18:09.422Z,63
2017-08-26T10:19:10.187Z,62
2017-08-26T10:20:10.951Z,60
2017-08-26T10:21:11.695Z,59
2017-08-26T10:22:12.439Z,58
2017-08-26T10:23:13.183Z,59
2017-08-26T10:24:13.921Z,58
2017-08-26T10:25:14.662Z,58
2017-08-26T10:26:15.399Z,58
2017-08-26T10:27:16.144Z,58
2017-08-26T10:28:16.885Z,58
2017-08-26T10:29:17.630Z,57
2017-08-26T10:30:18.394Z,56
2017-08-26T10:31:19.160Z,54
2017-08-26T10:32:19.991Z,54
2017-08-26T10:33:20.735Z,53
2017-08-26T10:34:21.477Z,53
2017-08-26T10:35:22.225Z,53
2017-08-26T10:36:22.991Z,52
2017-08-26T10:37:23.738Z,52
2017-08-26T10:38:24.496Z,54
2017-08-26T10:39:25.242Z,53
2017-08-26T10:40:25.987Z,53
2017-08-26T10:41:26.756Z,52
2017-08-26T10:42:27.505Z,51
2017-08-26T10:43:28.253Z,51
2017-08-26T10:44:29.007Z,52
2017-08-26T10:45:29.757Z,52
2017-08-26T10:46:30.508Z,53
2017-08-26T10:47:31.258Z,53
2017-08-26T10:48:32.035Z,52
2017-08-26T10:49:32.789Z,51
2017-08-26T10:50:33.595Z,53
2017-08-26T10:51:34.369Z,53
2017-08-26T10:52:35.144Z,52
2017-08-26T10:53:35.887Z,54
2017-08-26T10:54:36.643Z,54
2017-08-26T10:55:37.497Z,55
2017-08-26T10:56:38.246Z,55
2017-08-26T10:57:38.997Z,55
2017-08-26T10:58:39.747Z,55
2017-08-26T10:59:40.513Z,54
2017-08-26T11:00:41.262Z,56
2017-08-26T11:01:42.012Z,56
2017-08-26T11:02:42.778Z,56
2017-08-26T11:03:43.526Z,57
2017-08-26T11:04:44.268Z,56
2017-08-26T11:05:45.016Z,57
2017-08-26T11:06:45.758Z,57
2017-08-26T11:07:46.503Z,57
2017-08-26T11:08:47.248Z,58
2017-08-26T11:09:48.017Z,59
2017-08-26T11:10:48.785Z,59
2017-08-26T11:11:49.527Z,59
2017-08-26T11:12:50.289Z,58
2017-08-26T11:13:51.035Z,58
2017-08-26T11:14:51.780Z,58
2017-08-26T11:15:52.546Z,59
2017-08-26T11:16:53.285Z,59
2017-08-26T11:17:54.030Z,58
2017-08-26T11:18:54.795Z,58
2017-08-26T11:19:55.560Z,58
2017-08-26T11:20:56.302Z,59
2017-08-26T11:21:57.044Z,60
2017-08-26T11:22:57.787Z,59
2017-08-26T11:23:58.553Z,60
2017-08-26T11:24:59.298Z,59
2017-08-26T11:26:00.043Z,59
2017-08-26T11:27:00.800Z,58
2017-08-26T11:28:01.540Z,58
2017-08-26T11:29:02.307Z,59
2017-08-26T11:30:03.046Z,60
2017-08-26T11:31:03.786Z,58
2017-08-26T11:32:04.530Z,57
2017-08-26T11:33:05.458Z,57
2017-08-26T11:34:06.203Z,57
2017-08-26T11:35:06.967Z,56
2017-08-26T11:36:07.708Z,57
2017-08-26T11:37:08.471Z,57
2017-08-26T11:38:09.233Z,58
2017-08-26T11:39:09.974Z,59
2017-08-26T11:40:10.733Z,59
2017-08-26T11:41:11.555Z,59
2017-08-26T11:42:12.296Z,60
2017-08-26T11:43:13.037Z,59
2017-08-26T11:44:13.778Z,60
2017-08-26T11:45:14.528Z,60
2017-08-26T11:46:15.267Z,62
2017-08-26T11:47:16.011Z,62
2017-08-26T11:48:16.750Z,63
2017-08-26T11:49:17.493Z,64
2017-08-26T11:50:18.231Z,64
2017-08-26T11:51:18.970Z,64
2017-08-26T11:52:19.707Z,64
2017-08-26T11:53:20.469Z,64
2017-08-26T11:54:21.205Z,65
2017-08-26T11:55:21.949Z,66
2017-08-26T11:56:22.689Z,66
2017-08-26T11:57:23.427Z,67
2017-08-26T11:58:24.188Z,67
2017-08-26T11:59:24.930Z,66
2017-08-26T12:00:25.667Z,66
2017-08-26T12:01:26.404Z,66
2017-08-26T12:02:27.147Z,66
2017-08-26T12:03:27.886Z,67
2017-08-26T12:04:28.647Z,66
2017-08-26T12:05:29.387Z,66
2017-08-26T12:06:30.148Z,66
2017-08-26T12:07:30.910Z,66
2017-08-26T12:08:31.672Z,66
2017-08-26T12:09:32.407Z,66
2017-08-26T12:10:33.168Z,66
2017-08-26T12:11:33.908Z,67
2017-08-26T12:12:34.666Z,67
2017-08-26T12:13:35.425Z,66
2017-08-26T12:14:36.168Z,66
2017-08-26T12:15:36.906Z,64
2017-08-26T12:16:37.648Z,64
2017-08-26T12:17:38.402Z,63
2017-08-26T12:18:39.144Z,63
2017-08-26T12:19:39.886Z,62
2017-08-26T12:20:40.626Z,62
2017-08-26T12:21:41.363Z,62
2017-08-26T12:22:42.105Z,61
2017-08-26T12:23:42.845Z,60
2017-08-26T12:24:43.584Z,60
2017-08-26T12:25:44.349Z,59
2017-08-26T12:26:45.113Z,58
2017-08-26T12:27:45.856Z,57
2017-08-26T12:28:46.603Z,58
2017-08-26T12:29:47.360Z,57
2017-08-26T12:30:48.102Z,57
2017-08-26T12:31:48.846Z,58
2017-08-26T12:32:49.591Z,60
2017-08-26T12:33:50.331Z,60
2017-08-26T12:34:51.074Z,60
2017-08-26T12:35:51.817Z,60
2017-08-26T12:36:52.559Z,61
2017-08-26T12:37:53.296Z,60
2017-08-26T12:38:54.040Z,62
2017-08-26T12:39:54.780Z,62
2017-08-26T12:40:55.543Z,63
2017-08-26T12:41:56.307Z,62
2017-08-26T12:42:57.047Z,62
2017-08-26T12:43:57.791Z,61
2017-08-26T12:44:58.532Z,62
2017-08-26T12:45:59.277Z,61
2017-08-26T12:47:00.016Z,61
2017-08-26T12:48:00.779Z,61
2017-08-26T12:49:01.543Z,61
2017-08-26T12:50:02.283Z,63
2017-08-26T12:51:03.028Z,64
2017-08-26T12:52:03.768Z,64
2017-08-26T12:53:04.505Z,65
2017-08-26T12:54:05.245Z,65
2017-08-26T12:55:05.984Z,65
2017-08-26T12:56:06.728Z,66
2017-08-26T12:57:07.463Z,66
2017-08-26T12:58:08.201Z,66
2017-08-26T12:59:08.938Z,67
2017-08-26T13:00:09.680Z,67
2017-08-26T13:01:10.415Z,67
2017-08-26T13:02:11.158Z,66
2017-08-26T13:03:11.919Z,65
2017-08-26T13:04:12.649Z,65
2017-08-26T13:05:13.719Z,65
2017-08-26T13:06:14.380Z,65
2017-08-26T13:07:15.144Z,65
2017-08-26T13:08:15.889Z,65
2017-08-26T13:09:16.668Z,65
2017-08-26T13:10:17.408Z,65
2017-08-26T13:11:18.160Z,64
2017-08-26T13:12:18.925Z,66
2017-08-26T13:13:19.664Z,65
2017-08-26T13:14:20.426Z,65
2017-08-26T13:15:21.188Z,65
2017-08-26T13:16:21.955Z,64
2017-08-26T13:17:22.688Z,66
2017-08-26T13:18:23.422Z,65
2017-08-26T13:19:24.164Z,65
2017-08-26T13:20:24.903Z,64
2017-08-26T13:21:25.666Z,64
2017-08-26T13:22:26.402Z,63
2017-08-26T13:23:27.142Z,64
2017-08-26T13:24:27.902Z,65
2017-08-26T13:25:28.643Z,65
2017-08-26T13:26:29.378Z,63
2017-08-26T13:27:30.117Z,62
2017-08-26T13:28:30.853Z,61
2017-08-26T13:29:31.592Z,61
2017-08-26T13:30:32.353Z,61
2017-08-26T13:31:33.097Z,62
2017-08-26T13:32:33.853Z,62
2017-08-26T13:33:34.593Z,62
2017-08-26T13:34:35.331Z,63
2017-08-26T13:35:36.070Z,63
2017-08-26T13:36:36.805Z,63
2017-08-26T13:37:37.549Z,64
2017-08-26T13:38:38.284Z,64
2017-08-26T13:39:39.022Z,63
2017-08-26T13:40:39.781Z,64
2017-08-26T13:41:40.520Z,63
2017-08-26T13:42:41.259Z,63
2017-08-26T13:43:41.999Z,64
2017-08-26T13:44:42.733Z,64
2017-08-26T13:45:43.470Z,63
2017-08-26T13:46:44.209Z,63
2017-08-26T13:47:44.947Z,63
2017-08-26T13:48:45.681Z,64
2017-08-26T13:49:46.428Z,64
2017-08-26T13:50:47.157Z,64
2017-08-26T13:51:47.898Z,64
2017-08-26T13:52:48.654Z,64
2017-08-26T13:53:49.392Z,64
2017-08-26T13:54:50.129Z,63
2017-08-26T13:55:50.864Z,63
2017-08-26T13:56:51.598Z,63
2017-08-26T13:57:52.356Z,63
2017-08-26T13:58:53.094Z,64
2017-08-26T13:59:53.828Z,64
2017-08-26T14:00:54.561Z,65
2017-08-26T14:01:55.303Z,65
2017-08-26T14:02:56.054Z,66
2017-08-26T14:03:56.790Z,65
2017-08-26T14:04:57.527Z,65
2017-08-26T14:05:58.286Z,65
2017-08-26T14:06:59.022Z,66
2017-08-26T14:07:59.759Z,65
2017-08-26T14:09:00.492Z,65
2017-08-26T14:10:01.232Z,65
2017-08-26T14:11:01.966Z,65
2017-08-26T14:12:02.721Z,65
2017-08-26T14:13:03.481Z,65
2017-08-26T14:14:04.216Z,65
2017-08-26T14:15:04.976Z,65
2017-08-26T14:16:05.738Z,64
2017-08-26T14:17:06.475Z,64
2017-08-26T14:18:07.211Z,64
2017-08-26T14:19:07.947Z,63
2017-08-26T14:20:08.688Z,63
2017-08-26T14:21:09.440Z,63
2017-08-26T14:22:10.202Z,63
2017-08-26T14:23:10.961Z,63
2017-08-26T14:24:11.692Z,63
2017-08-26T14:25:12.426Z,62
2017-08-26T14:26:13.161Z,63